Fallston, NC

3:39 PM EST on November 26, 2014 (GMT -0500)
KNCCHERR7 | Change Station
CLOSE
Current Station
Personal Weather Station
Location: Lawndale, NC
Elevation: 971 ft
Nearby Weather Stations

Elev 971 ft 35.43 °N, 81.47 °W | Updated 2 seconds ago

Partly Cloudy
Partly Cloudy
51.4 °F
Feels Like 51.4 °F
N
4.5
Wind Variable Wind from NE
Gusts 8.3 mph

Today
High -- | Low -- °F
--% Chance of Precip.
Yesterday
High -- | Low -- °F
Precip. -- in
7:12 AM 5:14 PM
Waxing Crescent, 22% visible
Pressure 29.99 in
Visibility 10.0 miles
Clouds Scattered Clouds 3200 ft
Scattered Clouds 4300 ft
Scattered Clouds 5000 ft
Dew Point 46 °F
Humidity 80%
Rainfall 0.96 in
Snow Depth Not available.
UV 1 out of 12
Pollen .30 out of 12
Air Quality Not available.
Flu Activity Not available.
METAR KEHO 262015Z AUTO 22004KT 10SM SCT032 SCT043 SCT050 12/04 A2999 RMK AO2 T01150040

More Conditions Fewer Conditions

Pressure 29.99 in
Visibility 10.0 miles
Clouds Scattered Clouds 3200 ft
Scattered Clouds 4300 ft
Scattered Clouds 5000 ft
Dew Point 46 °F
Humidity 80%
Rainfall 0.96 in
Snow Depth Not available.
UV 1 out of 12
Pollen .30 out of 12
Air Quality Not available.
Flu Activity Not available.
METAR KEHO 262015Z AUTO 22004KT 10SM SCT032 SCT043 SCT050 12/04 A2999 RMK AO2 T01150040

More Conditions Fewer Conditions

10-Day Weather Forecast

Almanac

Astronomy

Nov. 26, 2014 Rise Set
Actual Time
Civil Twilight
Nautical Twilight
Astronomical Twilight
Moon
Length of Visible Light
Length of Day
Tomorrow will be .
, % of the Moon is Illuminated

Today's Extremes

State Highs State Lows

Community

WunderPhotos

Upload Photos

1,773,853 photos uploaded!

WunderBlogs® & News

Nearby

Air Quality

  Air Quality AQ Index Pollutant
Not available.

Snow Depth

Station Depth Elevation

Earthquake Activity

City Distance Mag. Time & Date
Minimum magnitude displayed is 2.5.

Coastal Water Temperatures

Place Temperature

Nearby Weather Stations